sensor_id;sensor_type;location;lat;lon;timestamp;P1;durP1;ratioP1;P2;durP2;ratioP2
66870;SDS011;53780;44.998;9.926;2023-06-14T00:02:58;9.17;;;5.00;;
66870;SDS011;53780;44.998;9.926;2023-06-14T00:06:02;11.73;;;5.43;;
66870;SDS011;53780;44.998;9.926;2023-06-14T00:09:06;10.20;;;5.32;;
66870;SDS011;53780;44.998;9.926;2023-06-14T00:12:12;11.45;;;5.40;;
66870;SDS011;53780;44.998;9.926;2023-06-14T00:15:15;10.57;;;5.72;;
66870;SDS011;53780;44.998;9.926;2023-06-14T00:18:19;12.47;;;5.37;;
66870;SDS011;53780;44.998;9.926;2023-06-14T00:21:23;9.85;;;5.20;;
66870;SDS011;53780;44.998;9.926;2023-06-14T00:24:27;10.88;;;5.80;;
66870;SDS011;53780;44.998;9.926;2023-06-14T00:27:30;11.45;;;6.28;;
66870;SDS011;53780;44.998;9.926;2023-06-14T00:30:34;11.00;;;6.28;;
66870;SDS011;53780;44.998;9.926;2023-06-14T00:33:39;13.97;;;6.47;;
66870;SDS011;53780;44.998;9.926;2023-06-14T00:36:43;13.25;;;6.38;;
66870;SDS011;53780;44.998;9.926;2023-06-14T00:39:47;10.95;;;6.70;;
66870;SDS011;53780;44.998;9.926;2023-06-14T00:42:51;10.73;;;6.30;;
66870;SDS011;53780;44.998;9.926;2023-06-14T00:45:54;11.50;;;6.65;;
66870;SDS011;53780;44.998;9.926;2023-06-14T00:48:58;12.30;;;7.00;;
66870;SDS011;53780;44.998;9.926;2023-06-14T00:52:04;11.85;;;6.60;;
66870;SDS011;53780;44.998;9.926;2023-06-14T00:55:09;10.57;;;5.80;;
66870;SDS011;53780;44.998;9.926;2023-06-14T00:58:13;13.38;;;6.38;;
66870;SDS011;53780;44.998;9.926;2023-06-14T01:01:19;12.20;;;6.78;;
66870;SDS011;53780;44.998;9.926;2023-06-14T01:04:22;11.27;;;6.47;;
66870;SDS011;53780;44.998;9.926;2023-06-14T01:11:23;12.95;;;6.78;;
66870;SDS011;53780;44.998;9.926;2023-06-14T01:14:33;12.27;;;6.80;;
66870;SDS011;53780;44.998;9.926;2023-06-14T01:17:38;12.95;;;6.75;;
66870;SDS011;53780;44.998;9.926;2023-06-14T01:20:47;13.67;;;7.30;;
66870;SDS011;53780;44.998;9.926;2023-06-14T01:23:53;13.07;;;7.43;;
66870;SDS011;53780;44.998;9.926;2023-06-14T01:26:58;12.57;;;7.07;;
66870;SDS011;53780;44.998;9.926;2023-06-14T01:30:05;13.48;;;7.63;;
66870;SDS011;53780;44.998;9.926;2023-06-14T01:33:09;13.30;;;7.30;;
66870;SDS011;53780;44.998;9.926;2023-06-14T01:36:16;13.87;;;7.43;;
66870;SDS011;53780;44.998;9.926;2023-06-14T01:39:22;13.23;;;7.20;;
66870;SDS011;53780;44.998;9.926;2023-06-14T01:42:27;13.82;;;7.75;;
66870;SDS011;53780;44.998;9.926;2023-06-14T01:45:31;12.30;;;7.00;;
66870;SDS011;53780;44.998;9.926;2023-06-14T01:48:35;13.50;;;7.85;;
66870;SDS011;53780;44.998;9.926;2023-06-14T01:51:40;13.47;;;7.33;;
66870;SDS011;53780;44.998;9.926;2023-06-14T01:54:46;12.43;;;7.15;;
66870;SDS011;53780;44.998;9.926;2023-06-14T01:57:51;16.13;;;7.60;;
66870;SDS011;53780;44.998;9.926;2023-06-14T02:00:55;13.73;;;7.00;;
66870;SDS011;53780;44.998;9.926;2023-06-14T02:04:01;14.32;;;7.65;;
66870;SDS011;53780;44.998;9.926;2023-06-14T02:07:05;12.80;;;7.07;;
66870;SDS011;53780;44.998;9.926;2023-06-14T02:10:10;14.80;;;7.35;;
66870;SDS011;53780;44.998;9.926;2023-06-14T02:13:14;16.52;;;7.00;;
66870;SDS011;53780;44.998;9.926;2023-06-14T02:16:18;14.57;;;6.90;;
66870;SDS011;53780;44.998;9.926;2023-06-14T02:19:21;18.27;;;7.13;;
66870;SDS011;53780;44.998;9.926;2023-06-14T02:22:25;16.53;;;7.50;;
66870;SDS011;53780;44.998;9.926;2023-06-14T02:25:29;15.82;;;7.03;;
66870;SDS011;53780;44.998;9.926;2023-06-14T02:28:33;18.02;;;6.88;;
66870;SDS011;53780;44.998;9.926;2023-06-14T02:31:37;16.98;;;7.30;;
66870;SDS011;53780;44.998;9.926;2023-06-14T02:34:41;15.05;;;7.40;;
66870;SDS011;53780;44.998;9.926;2023-06-14T02:37:45;17.63;;;7.67;;
66870;SDS011;53780;44.998;9.926;2023-06-14T02:40:48;15.07;;;7.97;;
66870;SDS011;53780;44.998;9.926;2023-06-14T02:43:52;15.57;;;7.60;;
66870;SDS011;53780;44.998;9.926;2023-06-14T02:46:56;17.33;;;8.02;;
66870;SDS011;53780;44.998;9.926;2023-06-14T02:50:02;14.00;;;7.70;;
66870;SDS011;53780;44.998;9.926;2023-06-14T02:53:06;15.93;;;7.50;;
66870;SDS011;53780;44.998;9.926;2023-06-14T02:56:10;15.88;;;7.47;;
66870;SDS011;53780;44.998;9.926;2023-06-14T02:59:15;12.95;;;7.32;;
66870;SDS011;53780;44.998;9.926;2023-06-14T03:02:20;14.43;;;8.27;;
66870;SDS011;53780;44.998;9.926;2023-06-14T03:05:24;15.50;;;8.40;;
66870;SDS011;53780;44.998;9.926;2023-06-14T03:08:28;15.13;;;8.60;;
66870;SDS011;53780;44.998;9.926;2023-06-14T03:11:34;16.30;;;8.63;;
66870;SDS011;53780;44.998;9.926;2023-06-14T03:14:38;18.75;;;7.93;;
66870;SDS011;53780;44.998;9.926;2023-06-14T03:17:43;14.95;;;7.85;;
66870;SDS011;53780;44.998;9.926;2023-06-14T03:20:49;15.32;;;7.70;;
66870;SDS011;53780;44.998;9.926;2023-06-14T03:23:55;11.70;;;6.33;;
66870;SDS011;53780;44.998;9.926;2023-06-14T03:26:59;13.55;;;7.72;;
66870;SDS011;53780;44.998;9.926;2023-06-14T03:30:05;15.05;;;8.10;;
66870;SDS011;53780;44.998;9.926;2023-06-14T03:33:11;14.45;;;7.55;;
66870;SDS011;53780;44.998;9.926;2023-06-14T03:36:17;16.20;;;7.93;;
66870;SDS011;53780;44.998;9.926;2023-06-14T03:39:21;15.67;;;7.60;;
66870;SDS011;53780;44.998;9.926;2023-06-14T03:42:26;16.42;;;8.43;;
66870;SDS011;53780;44.998;9.926;2023-06-14T03:45:30;18.63;;;8.10;;
66870;SDS011;53780;44.998;9.926;2023-06-14T03:48:36;19.30;;;8.90;;
66870;SDS011;53780;44.998;9.926;2023-06-14T03:51:39;16.33;;;8.80;;
66870;SDS011;53780;44.998;9.926;2023-06-14T03:54:44;19.27;;;8.70;;
66870;SDS011;53780;44.998;9.926;2023-06-14T03:57:48;18.23;;;9.07;;
66870;SDS011;53780;44.998;9.926;2023-06-14T04:00:54;16.50;;;9.15;;
66870;SDS011;53780;44.998;9.926;2023-06-14T04:03:58;17.05;;;9.98;;
66870;SDS011;53780;44.998;9.926;2023-06-14T04:07:03;16.90;;;9.15;;
66870;SDS011;53780;44.998;9.926;2023-06-14T04:10:08;18.73;;;9.67;;
66870;SDS011;53780;44.998;9.926;2023-06-14T04:13:12;20.83;;;10.32;;
66870;SDS011;53780;44.998;9.926;2023-06-14T04:16:16;25.55;;;10.70;;
66870;SDS011;53780;44.998;9.926;2023-06-14T04:19:21;20.90;;;10.55;;
66870;SDS011;53780;44.998;9.926;2023-06-14T04:22:24;18.70;;;9.93;;
66870;SDS011;53780;44.998;9.926;2023-06-14T04:25:33;19.70;;;10.50;;
66870;SDS011;53780;44.998;9.926;2023-06-14T04:28:37;18.20;;;10.02;;
66870;SDS011;53780;44.998;9.926;2023-06-14T04:31:44;19.27;;;9.93;;
66870;SDS011;53780;44.998;9.926;2023-06-14T04:34:49;19.48;;;10.27;;
66870;SDS011;53780;44.998;9.926;2023-06-14T04:37:57;18.30;;;10.35;;
66870;SDS011;53780;44.998;9.926;2023-06-14T04:41:02;17.63;;;10.37;;
66870;SDS011;53780;44.998;9.926;2023-06-14T04:44:07;20.40;;;10.27;;
66870;SDS011;53780;44.998;9.926;2023-06-14T04:47:16;19.98;;;10.55;;
66870;SDS011;53780;44.998;9.926;2023-06-14T04:50:20;18.58;;;10.50;;
66870;SDS011;53780;44.998;9.926;2023-06-14T04:53:24;18.77;;;10.38;;
66870;SDS011;53780;44.998;9.926;2023-06-14T04:56:31;19.83;;;10.37;;
66870;SDS011;53780;44.998;9.926;2023-06-14T04:59:35;16.08;;;9.82;;
66870;SDS011;53780;44.998;9.926;2023-06-14T05:02:40;17.75;;;10.35;;
66870;SDS011;53780;44.998;9.926;2023-06-14T05:05:44;21.40;;;10.55;;
66870;SDS011;53780;44.998;9.926;2023-06-14T05:08:50;20.23;;;10.98;;
66870;SDS011;53780;44.998;9.926;2023-06-14T05:11:54;20.87;;;11.13;;
66870;SDS011;53780;44.998;9.926;2023-06-14T05:14:58;18.58;;;10.65;;
66870;SDS011;53780;44.998;9.926;2023-06-14T05:18:02;17.30;;;10.18;;
66870;SDS011;53780;44.998;9.926;2023-06-14T05:21:06;19.80;;;9.80;;
66870;SDS011;53780;44.998;9.926;2023-06-14T05:24:10;20.23;;;10.65;;
66870;SDS011;53780;44.998;9.926;2023-06-14T05:27:14;19.00;;;10.70;;
66870;SDS011;53780;44.998;9.926;2023-06-14T05:30:19;18.27;;;11.07;;
66870;SDS011;53780;44.998;9.926;2023-06-14T05:33:23;19.20;;;10.63;;
66870;SDS011;53780;44.998;9.926;2023-06-14T05:36:28;18.80;;;10.70;;
66870;SDS011;53780;44.998;9.926;2023-06-14T05:39:32;18.80;;;9.95;;
66870;SDS011;53780;44.998;9.926;2023-06-14T05:42:36;16.87;;;9.00;;
66870;SDS011;53780;44.998;9.926;2023-06-14T05:45:42;17.40;;;9.80;;
66870;SDS011;53780;44.998;9.926;2023-06-14T05:48:45;18.90;;;10.38;;
66870;SDS011;53780;44.998;9.926;2023-06-14T05:51:49;20.08;;;10.25;;
66870;SDS011;53780;44.998;9.926;2023-06-14T05:54:53;22.30;;;11.32;;
66870;SDS011;53780;44.998;9.926;2023-06-14T05:57:56;20.60;;;10.93;;
66870;SDS011;53780;44.998;9.926;2023-06-14T06:01:00;20.38;;;10.80;;
66870;SDS011;53780;44.998;9.926;2023-06-14T06:04:04;18.73;;;10.43;;
66870;SDS011;53780;44.998;9.926;2023-06-14T06:07:08;20.73;;;11.38;;
66870;SDS011;53780;44.998;9.926;2023-06-14T06:10:12;19.67;;;11.52;;
66870;SDS011;53780;44.998;9.926;2023-06-14T06:13:15;21.40;;;11.57;;
66870;SDS011;53780;44.998;9.926;2023-06-14T06:16:19;20.50;;;11.50;;
66870;SDS011;53780;44.998;9.926;2023-06-14T06:19:24;20.50;;;11.65;;
66870;SDS011;53780;44.998;9.926;2023-06-14T06:22:28;20.17;;;11.45;;
66870;SDS011;53780;44.998;9.926;2023-06-14T06:25:31;21.25;;;11.77;;
66870;SDS011;53780;44.998;9.926;2023-06-14T06:28:38;20.60;;;11.37;;
66870;SDS011;53780;44.998;9.926;2023-06-14T06:31:41;20.50;;;11.68;;
66870;SDS011;53780;44.998;9.926;2023-06-14T06:34:45;21.27;;;11.25;;
66870;SDS011;53780;44.998;9.926;2023-06-14T06:37:49;22.30;;;11.27;;
66870;SDS011;53780;44.998;9.926;2023-06-14T06:40:53;20.58;;;11.18;;
66870;SDS011;53780;44.998;9.926;2023-06-14T06:43:57;20.57;;;11.40;;
66870;SDS011;53780;44.998;9.926;2023-06-14T06:47:05;26.20;;;10.98;;
66870;SDS011;53780;44.998;9.926;2023-06-14T06:50:09;19.23;;;11.10;;
66870;SDS011;53780;44.998;9.926;2023-06-14T06:53:13;20.73;;;11.10;;
66870;SDS011;53780;44.998;9.926;2023-06-14T06:56:17;20.42;;;11.27;;
66870;SDS011;53780;44.998;9.926;2023-06-14T06:59:21;20.60;;;10.90;;
66870;SDS011;53780;44.998;9.926;2023-06-14T07:02:24;19.88;;;10.88;;
66870;SDS011;53780;44.998;9.926;2023-06-14T07:05:28;19.85;;;11.00;;
66870;SDS011;53780;44.998;9.926;2023-06-14T07:08:32;22.48;;;11.30;;
66870;SDS011;53780;44.998;9.926;2023-06-14T07:11:36;23.02;;;11.30;;
66870;SDS011;53780;44.998;9.926;2023-06-14T07:14:39;22.30;;;11.37;;
66870;SDS011;53780;44.998;9.926;2023-06-14T07:17:43;21.88;;;11.55;;
66870;SDS011;53780;44.998;9.926;2023-06-14T07:20:47;20.25;;;11.43;;
66870;SDS011;53780;44.998;9.926;2023-06-14T07:23:51;20.35;;;11.50;;
66870;SDS011;53780;44.998;9.926;2023-06-14T07:26:56;25.02;;;12.30;;
66870;SDS011;53780;44.998;9.926;2023-06-14T07:30:00;21.63;;;11.67;;
66870;SDS011;53780;44.998;9.926;2023-06-14T07:33:04;23.52;;;12.25;;
66870;SDS011;53780;44.998;9.926;2023-06-14T07:36:07;23.08;;;13.02;;
66870;SDS011;53780;44.998;9.926;2023-06-14T07:39:11;21.65;;;11.70;;
66870;SDS011;53780;44.998;9.926;2023-06-14T07:42:15;21.13;;;12.45;;
66870;SDS011;53780;44.998;9.926;2023-06-14T07:45:19;20.73;;;11.60;;
66870;SDS011;53780;44.998;9.926;2023-06-14T07:48:23;22.23;;;12.27;;
66870;SDS011;53780;44.998;9.926;2023-06-14T07:51:27;25.08;;;12.02;;
66870;SDS011;53780;44.998;9.926;2023-06-14T07:54:30;22.77;;;12.60;;
66870;SDS011;53780;44.998;9.926;2023-06-14T07:57:36;21.98;;;11.93;;
66870;SDS011;53780;44.998;9.926;2023-06-14T08:00:40;20.47;;;12.13;;
66870;SDS011;53780;44.998;9.926;2023-06-14T08:03:44;24.25;;;13.10;;
66870;SDS011;53780;44.998;9.926;2023-06-14T08:06:50;21.77;;;12.63;;
66870;SDS011;53780;44.998;9.926;2023-06-14T08:09:53;22.55;;;13.07;;
66870;SDS011;53780;44.998;9.926;2023-06-14T08:12:57;23.35;;;13.38;;
66870;SDS011;53780;44.998;9.926;2023-06-14T08:16:01;22.40;;;12.67;;
66870;SDS011;53780;44.998;9.926;2023-06-14T08:19:07;23.75;;;14.02;;
66870;SDS011;53780;44.998;9.926;2023-06-14T08:22:11;24.98;;;14.75;;
66870;SDS011;53780;44.998;9.926;2023-06-14T08:25:15;26.30;;;15.35;;
66870;SDS011;53780;44.998;9.926;2023-06-14T08:28:19;25.27;;;15.60;;
66870;SDS011;53780;44.998;9.926;2023-06-14T08:31:23;26.07;;;15.10;;
66870;SDS011;53780;44.998;9.926;2023-06-14T08:34:28;25.80;;;15.25;;
66870;SDS011;53780;44.998;9.926;2023-06-14T08:37:32;24.55;;;15.05;;
66870;SDS011;53780;44.998;9.926;2023-06-14T08:40:38;28.08;;;15.75;;
66870;SDS011;53780;44.998;9.926;2023-06-14T08:43:45;26.35;;;15.80;;
66870;SDS011;53780;44.998;9.926;2023-06-14T08:46:48;23.40;;;14.40;;
66870;SDS011;53780;44.998;9.926;2023-06-14T08:49:55;22.13;;;14.02;;
66870;SDS011;53780;44.998;9.926;2023-06-14T08:53:01;23.88;;;15.15;;
66870;SDS011;53780;44.998;9.926;2023-06-14T08:56:06;26.13;;;14.63;;
66870;SDS011;53780;44.998;9.926;2023-06-14T08:59:11;24.90;;;15.50;;
66870;SDS011;53780;44.998;9.926;2023-06-14T09:02:15;27.07;;;14.23;;
66870;SDS011;53780;44.998;9.926;2023-06-14T09:05:23;23.50;;;13.85;;
66870;SDS011;53780;44.998;9.926;2023-06-14T09:08:29;23.20;;;14.43;;
66870;SDS011;53780;44.998;9.926;2023-06-14T09:11:34;23.95;;;13.32;;
66870;SDS011;53780;44.998;9.926;2023-06-14T09:14:39;22.23;;;13.75;;
66870;SDS011;53780;44.998;9.926;2023-06-14T09:17:45;19.73;;;13.03;;
66870;SDS011;53780;44.998;9.926;2023-06-14T09:20:48;20.08;;;13.00;;
66870;SDS011;53780;44.998;9.926;2023-06-14T09:23:52;23.27;;;12.68;;
66870;SDS011;53780;44.998;9.926;2023-06-14T09:26:57;20.85;;;12.60;;
66870;SDS011;53780;44.998;9.926;2023-06-14T09:30:04;20.27;;;12.20;;
66870;SDS011;53780;44.998;9.926;2023-06-14T09:33:10;16.80;;;11.47;;
66870;SDS011;53780;44.998;9.926;2023-06-14T09:36:18;20.88;;;12.40;;
66870;SDS011;53780;44.998;9.926;2023-06-14T09:39:25;17.33;;;11.93;;
66870;SDS011;53780;44.998;9.926;2023-06-14T09:42:30;20.83;;;12.25;;
66870;SDS011;53780;44.998;9.926;2023-06-14T09:45:34;17.95;;;11.88;;
66870;SDS011;53780;44.998;9.926;2023-06-14T09:48:38;19.90;;;11.60;;
66870;SDS011;53780;44.998;9.926;2023-06-14T09:51:45;17.30;;;12.27;;
66870;SDS011;53780;44.998;9.926;2023-06-14T09:54:54;17.90;;;12.15;;
66870;SDS011;53780;44.998;9.926;2023-06-14T09:57:59;21.15;;;11.68;;
66870;SDS011;53780;44.998;9.926;2023-06-14T10:01:07;104.60;;;18.52;;
66870;SDS011;53780;44.998;9.926;2023-06-14T10:04:12;20.87;;;12.37;;
66870;SDS011;53780;44.998;9.926;2023-06-14T10:07:19;19.00;;;12.85;;
66870;SDS011;53780;44.998;9.926;2023-06-14T10:10:24;20.33;;;12.43;;
66870;SDS011;53780;44.998;9.926;2023-06-14T10:13:28;22.25;;;12.10;;
66870;SDS011;53780;44.998;9.926;2023-06-14T10:23:23;21.25;;;12.05;;
66870;SDS011;53780;44.998;9.926;2023-06-14T10:26:30;18.15;;;11.88;;
66870;SDS011;53780;44.998;9.926;2023-06-14T10:29:34;17.98;;;11.30;;
66870;SDS011;53780;44.998;9.926;2023-06-14T10:33:02;21.48;;;12.43;;
66870;SDS011;53780;44.998;9.926;2023-06-14T10:36:07;21.67;;;12.30;;
66870;SDS011;53780;44.998;9.926;2023-06-14T10:39:31;18.65;;;12.00;;
66870;SDS011;53780;44.998;9.926;2023-06-14T10:42:39;17.60;;;11.65;;
66870;SDS011;53780;44.998;9.926;2023-06-14T10:49:19;18.00;;;12.38;;
66870;SDS011;53780;44.998;9.926;2023-06-14T10:52:24;18.20;;;12.40;;
66870;SDS011;53780;44.998;9.926;2023-06-14T10:55:34;19.10;;;12.43;;
66870;SDS011;53780;44.998;9.926;2023-06-14T10:58:38;19.75;;;13.23;;
66870;SDS011;53780;44.998;9.926;2023-06-14T11:05:08;19.23;;;12.13;;
66870;SDS011;53780;44.998;9.926;2023-06-14T11:08:19;18.87;;;12.43;;
66870;SDS011;53780;44.998;9.926;2023-06-14T11:11:32;19.27;;;12.93;;
66870;SDS011;53780;44.998;9.926;2023-06-14T11:14:38;18.55;;;12.60;;
66870;SDS011;53780;44.998;9.926;2023-06-14T11:17:50;19.45;;;12.48;;
66870;SDS011;53780;44.998;9.926;2023-06-14T11:20:56;17.85;;;11.70;;
66870;SDS011;53780;44.998;9.926;2023-06-14T11:24:00;24.27;;;12.33;;
66870;SDS011;53780;44.998;9.926;2023-06-14T11:27:04;21.30;;;12.38;;
66870;SDS011;53780;44.998;9.926;2023-06-14T11:30:09;19.88;;;12.68;;
66870;SDS011;53780;44.998;9.926;2023-06-14T11:33:17;20.17;;;12.55;;
66870;SDS011;53780;44.998;9.926;2023-06-14T11:36:27;18.33;;;11.65;;
66870;SDS011;53780;44.998;9.926;2023-06-14T11:39:34;18.63;;;12.33;;
66870;SDS011;53780;44.998;9.926;2023-06-14T11:42:46;18.10;;;12.13;;
66870;SDS011;53780;44.998;9.926;2023-06-14T11:45:50;20.08;;;12.32;;
66870;SDS011;53780;44.998;9.926;2023-06-14T11:48:54;20.70;;;12.32;;
66870;SDS011;53780;44.998;9.926;2023-06-14T11:51:58;20.88;;;11.55;;
66870;SDS011;53780;44.998;9.926;2023-06-14T11:55:02;18.40;;;12.63;;
66870;SDS011;53780;44.998;9.926;2023-06-14T11:58:10;19.02;;;11.88;;
66870;SDS011;53780;44.998;9.926;2023-06-14T12:01:15;20.77;;;13.75;;
66870;SDS011;53780;44.998;9.926;2023-06-14T12:04:23;20.20;;;13.45;;
66870;SDS011;53780;44.998;9.926;2023-06-14T12:07:31;18.83;;;13.13;;
66870;SDS011;53780;44.998;9.926;2023-06-14T12:10:41;17.73;;;12.53;;
66870;SDS011;53780;44.998;9.926;2023-06-14T12:13:47;21.08;;;13.43;;
66870;SDS011;53780;44.998;9.926;2023-06-14T12:16:52;19.65;;;13.55;;
66870;SDS011;53780;44.998;9.926;2023-06-14T12:20:09;18.92;;;13.52;;
66870;SDS011;53780;44.998;9.926;2023-06-14T12:23:20;22.42;;;14.35;;
66870;SDS011;53780;44.998;9.926;2023-06-14T12:26:24;24.87;;;14.50;;
66870;SDS011;53780;44.998;9.926;2023-06-14T12:29:29;21.48;;;13.75;;
66870;SDS011;53780;44.998;9.926;2023-06-14T12:32:34;21.38;;;14.70;;
66870;SDS011;53780;44.998;9.926;2023-06-14T12:35:37;20.80;;;14.35;;
66870;SDS011;53780;44.998;9.926;2023-06-14T12:38:41;18.80;;;13.30;;
66870;SDS011;53780;44.998;9.926;2023-06-14T12:41:46;21.03;;;14.20;;
66870;SDS011;53780;44.998;9.926;2023-06-14T12:44:50;21.33;;;14.63;;
66870;SDS011;53780;44.998;9.926;2023-06-14T12:47:54;27.98;;;13.73;;
66870;SDS011;53780;44.998;9.926;2023-06-14T12:50:58;21.20;;;14.65;;
66870;SDS011;53780;44.998;9.926;2023-06-14T12:54:02;20.90;;;15.05;;
66870;SDS011;53780;44.998;9.926;2023-06-14T12:57:06;17.97;;;12.77;;
66870;SDS011;53780;44.998;9.926;2023-06-14T13:00:11;20.17;;;13.68;;
66870;SDS011;53780;44.998;9.926;2023-06-14T13:03:16;17.83;;;11.88;;
66870;SDS011;53780;44.998;9.926;2023-06-14T13:06:21;17.35;;;12.32;;
66870;SDS011;53780;44.998;9.926;2023-06-14T13:09:26;18.17;;;13.52;;
66870;SDS011;53780;44.998;9.926;2023-06-14T13:12:30;19.47;;;13.53;;
66870;SDS011;53780;44.998;9.926;2023-06-14T13:15:34;20.23;;;13.18;;
66870;SDS011;53780;44.998;9.926;2023-06-14T13:18:38;20.42;;;14.50;;
66870;SDS011;53780;44.998;9.926;2023-06-14T13:21:41;20.58;;;13.93;;
66870;SDS011;53780;44.998;9.926;2023-06-14T13:24:48;17.48;;;11.90;;
66870;SDS011;53780;44.998;9.926;2023-06-14T13:27:55;17.90;;;12.33;;
66870;SDS011;53780;44.998;9.926;2023-06-14T13:30:59;17.88;;;11.40;;
66870;SDS011;53780;44.998;9.926;2023-06-14T13:34:03;14.75;;;9.68;;
66870;SDS011;53780;44.998;9.926;2023-06-14T13:37:09;18.63;;;12.20;;
66870;SDS011;53780;44.998;9.926;2023-06-14T13:40:13;17.30;;;11.45;;
66870;SDS011;53780;44.998;9.926;2023-06-14T13:43:17;18.00;;;11.87;;
66870;SDS011;53780;44.998;9.926;2023-06-14T13:46:20;15.85;;;11.07;;
66870;SDS011;53780;44.998;9.926;2023-06-14T13:49:24;18.25;;;10.73;;
66870;SDS011;53780;44.998;9.926;2023-06-14T13:52:28;15.80;;;10.85;;
66870;SDS011;53780;44.998;9.926;2023-06-14T13:55:32;16.88;;;11.48;;
66870;SDS011;53780;44.998;9.926;2023-06-14T13:58:37;18.93;;;10.77;;
66870;SDS011;53780;44.998;9.926;2023-06-14T14:01:41;17.17;;;10.85;;
66870;SDS011;53780;44.998;9.926;2023-06-14T14:04:45;14.90;;;11.05;;
66870;SDS011;53780;44.998;9.926;2023-06-14T14:07:55;14.00;;;8.63;;
66870;SDS011;53780;44.998;9.926;2023-06-14T14:11:00;14.25;;;9.90;;
66870;SDS011;53780;44.998;9.926;2023-06-14T14:14:04;13.87;;;9.90;;
66870;SDS011;53780;44.998;9.926;2023-06-14T14:17:08;14.65;;;9.75;;
66870;SDS011;53780;44.998;9.926;2023-06-14T14:20:11;15.85;;;10.80;;
66870;SDS011;53780;44.998;9.926;2023-06-14T14:23:18;14.85;;;10.60;;
66870;SDS011;53780;44.998;9.926;2023-06-14T14:26:24;15.82;;;9.85;;
66870;SDS011;53780;44.998;9.926;2023-06-14T14:29:28;14.33;;;8.97;;
66870;SDS011;53780;44.998;9.926;2023-06-14T14:32:34;16.15;;;9.73;;
66870;SDS011;53780;44.998;9.926;2023-06-14T14:35:38;16.77;;;10.20;;
66870;SDS011;53780;44.998;9.926;2023-06-14T14:38:42;18.25;;;11.00;;
66870;SDS011;53780;44.998;9.926;2023-06-14T14:41:46;13.93;;;10.50;;
66870;SDS011;53780;44.998;9.926;2023-06-14T14:44:49;14.23;;;8.90;;
66870;SDS011;53780;44.998;9.926;2023-06-14T14:47:53;14.30;;;9.35;;
66870;SDS011;53780;44.998;9.926;2023-06-14T14:50:57;15.55;;;10.45;;
66870;SDS011;53780;44.998;9.926;2023-06-14T14:54:01;16.55;;;10.25;;
66870;SDS011;53780;44.998;9.926;2023-06-14T14:57:05;13.18;;;9.13;;
66870;SDS011;53780;44.998;9.926;2023-06-14T15:00:10;13.50;;;8.67;;
66870;SDS011;53780;44.998;9.926;2023-06-14T15:03:14;13.20;;;9.55;;
66870;SDS011;53780;44.998;9.926;2023-06-14T15:06:18;16.13;;;10.43;;
66870;SDS011;53780;44.998;9.926;2023-06-14T15:09:22;14.95;;;9.57;;
66870;SDS011;53780;44.998;9.926;2023-06-14T15:12:26;14.95;;;10.02;;
66870;SDS011;53780;44.998;9.926;2023-06-14T15:15:30;15.57;;;10.60;;
66870;SDS011;53780;44.998;9.926;2023-06-14T15:18:33;17.17;;;10.75;;
66870;SDS011;53780;44.998;9.926;2023-06-14T15:21:37;14.27;;;9.98;;
66870;SDS011;53780;44.998;9.926;2023-06-14T15:24:41;16.10;;;10.68;;
66870;SDS011;53780;44.998;9.926;2023-06-14T15:27:46;15.45;;;9.93;;
66870;SDS011;53780;44.998;9.926;2023-06-14T15:30:50;17.80;;;10.87;;
66870;SDS011;53780;44.998;9.926;2023-06-14T15:33:53;13.93;;;9.18;;
66870;SDS011;53780;44.998;9.926;2023-06-14T15:36:57;16.30;;;10.70;;
66870;SDS011;53780;44.998;9.926;2023-06-14T15:40:01;17.65;;;10.70;;
66870;SDS011;53780;44.998;9.926;2023-06-14T15:43:05;15.15;;;10.55;;
66870;SDS011;53780;44.998;9.926;2023-06-14T15:46:09;14.37;;;9.97;;
66870;SDS011;53780;44.998;9.926;2023-06-14T15:49:13;15.68;;;9.57;;
66870;SDS011;53780;44.998;9.926;2023-06-14T15:52:17;15.52;;;10.05;;
66870;SDS011;53780;44.998;9.926;2023-06-14T15:55:21;15.98;;;10.23;;
66870;SDS011;53780;44.998;9.926;2023-06-14T15:58:25;14.52;;;9.65;;
66870;SDS011;53780;44.998;9.926;2023-06-14T16:01:28;13.00;;;8.27;;
66870;SDS011;53780;44.998;9.926;2023-06-14T16:04:32;14.88;;;10.00;;
66870;SDS011;53780;44.998;9.926;2023-06-14T16:07:36;14.05;;;9.40;;
66870;SDS011;53780;44.998;9.926;2023-06-14T16:10:40;16.58;;;9.23;;
66870;SDS011;53780;44.998;9.926;2023-06-14T16:13:45;15.43;;;9.35;;
66870;SDS011;53780;44.998;9.926;2023-06-14T16:16:49;16.57;;;10.13;;
66870;SDS011;53780;44.998;9.926;2023-06-14T16:19:53;14.35;;;9.00;;
66870;SDS011;53780;44.998;9.926;2023-06-14T16:22:56;14.43;;;9.00;;
66870;SDS011;53780;44.998;9.926;2023-06-14T16:26:00;11.95;;;8.18;;
66870;SDS011;53780;44.998;9.926;2023-06-14T16:29:04;13.18;;;8.02;;
66870;SDS011;53780;44.998;9.926;2023-06-14T16:32:08;13.93;;;9.33;;
66870;SDS011;53780;44.998;9.926;2023-06-14T16:35:12;13.48;;;8.93;;
66870;SDS011;53780;44.998;9.926;2023-06-14T16:38:15;11.23;;;7.82;;
66870;SDS011;53780;44.998;9.926;2023-06-14T16:41:19;13.40;;;7.03;;
66870;SDS011;53780;44.998;9.926;2023-06-14T16:44:23;10.32;;;5.65;;
66870;SDS011;53780;44.998;9.926;2023-06-14T16:47:28;14.07;;;8.23;;
66870;SDS011;53780;44.998;9.926;2023-06-14T16:50:32;12.40;;;7.63;;
66870;SDS011;53780;44.998;9.926;2023-06-14T16:53:36;13.45;;;8.23;;
66870;SDS011;53780;44.998;9.926;2023-06-14T16:56:40;11.98;;;7.70;;
66870;SDS011;53780;44.998;9.926;2023-06-14T16:59:44;13.00;;;8.10;;
66870;SDS011;53780;44.998;9.926;2023-06-14T17:02:47;12.50;;;7.23;;
66870;SDS011;53780;44.998;9.926;2023-06-14T17:05:55;9.88;;;6.70;;
66870;SDS011;53780;44.998;9.926;2023-06-14T17:08:59;10.13;;;6.20;;
66870;SDS011;53780;44.998;9.926;2023-06-14T17:12:04;10.45;;;6.38;;
66870;SDS011;53780;44.998;9.926;2023-06-14T17:15:09;11.23;;;6.70;;
66870;SDS011;53780;44.998;9.926;2023-06-14T17:18:13;10.07;;;6.57;;
66870;SDS011;53780;44.998;9.926;2023-06-14T17:21:17;11.10;;;6.45;;
66870;SDS011;53780;44.998;9.926;2023-06-14T17:24:21;9.38;;;5.68;;
66870;SDS011;53780;44.998;9.926;2023-06-14T17:27:25;8.38;;;5.10;;
66870;SDS011;53780;44.998;9.926;2023-06-14T17:30:30;8.05;;;5.45;;
66870;SDS011;53780;44.998;9.926;2023-06-14T17:33:34;11.33;;;6.33;;
66870;SDS011;53780;44.998;9.926;2023-06-14T17:36:37;9.32;;;6.53;;
66870;SDS011;53780;44.998;9.926;2023-06-14T17:39:41;11.27;;;6.70;;
66870;SDS011;53780;44.998;9.926;2023-06-14T17:42:45;11.55;;;6.40;;
66870;SDS011;53780;44.998;9.926;2023-06-14T17:45:49;14.38;;;7.47;;
66870;SDS011;53780;44.998;9.926;2023-06-14T17:48:53;16.10;;;8.93;;
66870;SDS011;53780;44.998;9.926;2023-06-14T17:51:56;18.48;;;9.40;;
66870;SDS011;53780;44.998;9.926;2023-06-14T17:55:01;14.50;;;8.40;;
66870;SDS011;53780;44.998;9.926;2023-06-14T17:58:05;15.15;;;8.95;;
66870;SDS011;53780;44.998;9.926;2023-06-14T18:01:08;12.55;;;8.43;;
66870;SDS011;53780;44.998;9.926;2023-06-14T18:04:12;14.93;;;9.60;;
66870;SDS011;53780;44.998;9.926;2023-06-14T18:07:16;15.10;;;8.80;;
66870;SDS011;53780;44.998;9.926;2023-06-14T18:10:20;13.95;;;9.95;;
66870;SDS011;53780;44.998;9.926;2023-06-14T18:13:24;15.85;;;8.85;;
66870;SDS011;53780;44.998;9.926;2023-06-14T18:16:27;14.05;;;9.32;;
66870;SDS011;53780;44.998;9.926;2023-06-14T18:19:31;11.50;;;7.23;;
66870;SDS011;53780;44.998;9.926;2023-06-14T18:22:35;14.85;;;8.25;;
66870;SDS011;53780;44.998;9.926;2023-06-14T18:25:39;13.18;;;7.47;;
66870;SDS011;53780;44.998;9.926;2023-06-14T18:28:43;11.10;;;7.50;;